createdAt,value
2023-02-13T00:01:12.918Z,32.9
2023-02-13T00:06:35.676Z,31.7
2023-02-13T00:11:56.213Z,31.8
2023-02-13T00:17:18.658Z,29.8
2023-02-13T00:22:56.557Z,22.3
2023-02-13T00:28:48.035Z,31.2
2023-02-13T00:34:25.972Z,33
2023-02-13T00:40:03.445Z,30.3
2023-02-13T00:45:24.534Z,33
2023-02-13T00:50:47.681Z,31.7
2023-02-13T00:56:25.213Z,31.9
2023-02-13T01:01:46.536Z,32.5
2023-02-13T01:06:38.322Z,30.6
2023-02-13T01:12:00.670Z,32.7
2023-02-13T01:17:36.789Z,31.9
2023-02-13T01:23:14.051Z,31.6
2023-02-13T01:28:51.461Z,32.8
2023-02-13T01:34:29.594Z,30
2023-02-13T01:40:07.502Z,32.7
2023-02-13T01:45:45.694Z,31.8
2023-02-13T01:51:24.541Z,31.4
2023-02-13T01:57:01.222Z,32.4
2023-02-13T02:02:23.959Z,22.6
2023-02-13T02:07:46.361Z,30.4
2023-02-13T02:13:23.146Z,33.2
2023-02-13T02:18:45.116Z,31.8
2023-02-13T02:24:22.184Z,32.3
2023-02-13T02:29:59.682Z,32
2023-02-13T02:35:37.384Z,31.6
2023-02-13T02:41:15.196Z,32.8
2023-02-13T02:46:52.945Z,30.3
2023-02-13T02:52:29.955Z,32.8
2023-02-13T02:58:06.882Z,31.6
2023-02-13T03:03:44.953Z,31.8
2023-02-13T03:09:22.231Z,32.5
2023-02-13T03:15:00.306Z,30.6
2023-02-13T03:20:37.666Z,32.9
2023-02-13T03:26:14.993Z,31.6
2023-02-13T03:31:52.926Z,32.1
2023-02-13T03:37:30.476Z,32.4
2023-02-13T03:43:06.960Z,30.7
2023-02-13T03:48:44.734Z,31.3
2023-02-13T03:54:21.811Z,22.3
2023-02-13T03:59:58.674Z,30.6
2023-02-13T04:05:36.144Z,32.9
2023-02-13T04:10:58.268Z,31.8
2023-02-13T04:16:20.572Z,32.1
2023-02-13T04:21:42.586Z,32.6
2023-02-13T04:27:20.117Z,30.4
2023-02-13T04:32:59.119Z,32.6
2023-02-13T04:38:37.219Z,32
2023-02-13T04:44:14.727Z,31
2023-02-13T04:49:52.776Z,32.9
2023-02-13T04:55:28.983Z,31.3
2023-02-13T05:00:50.071Z,32.1
2023-02-13T05:06:13.532Z,32.6
2023-02-13T05:11:51.983Z,30
2023-02-13T05:17:29.781Z,32.3
2023-02-13T05:22:52.207Z,32.1
2023-02-13T05:28:14.138Z,30.7
2023-02-13T05:33:37.573Z,32.5
2023-02-13T05:39:15.742Z,22.4
2023-02-13T05:44:52.740Z,28.9
2023-02-13T05:50:31.935Z,32.3
2023-02-13T05:56:09.790Z,32.9
2023-02-13T06:01:48.053Z,30.4
2023-02-13T06:07:10.209Z,32.7
2023-02-13T06:12:47.538Z,32.1
2023-02-13T06:18:26.088Z,31.1
2023-02-13T06:24:03.616Z,32.9
2023-02-13T06:29:41.378Z,31.8
2023-02-13T06:35:21.813Z,31.7
2023-02-13T06:40:59.602Z,33.3
2023-02-13T06:46:21.287Z,30.5
2023-02-13T06:51:59.910Z,32.4
2023-02-13T06:57:33.525Z,32.4
2023-02-13T07:02:58.413Z,31.1
2023-02-13T07:08:36.110Z,33
2023-02-13T07:14:12.453Z,31.6
2023-02-13T07:19:49.719Z,32.1
2023-02-13T07:25:11.918Z,27
2023-02-13T07:30:50.378Z,26.4
2023-02-13T07:36:40.680Z,32.2
2023-02-13T07:42:04.404Z,32.9
2023-02-13T07:47:26.729Z,31.1
2023-02-13T07:52:48.409Z,33.4
2023-02-13T07:57:55.354Z,31.7
2023-02-13T08:03:34.184Z,32.3
2023-02-13T08:08:40.054Z,32.7
2023-02-13T08:14:18.310Z,30.8
2023-02-13T08:19:58.745Z,33.3
2023-02-13T08:25:35.281Z,31.5
2023-02-13T08:30:58.543Z,32.6
2023-02-13T08:36:31.166Z,32.4
2023-02-13T08:42:08.479Z,30.8
2023-02-13T08:47:47.208Z,33.4
2023-02-13T08:53:09.813Z,31.2
2023-02-13T08:58:48.044Z,32.4
2023-02-13T09:04:10.892Z,32.6
2023-02-13T09:09:49.211Z,31.1
2023-02-13T09:15:27.123Z,31.8
2023-02-13T09:21:04.417Z,23.1
2023-02-13T09:26:42.222Z,31.9
2023-02-13T09:32:05.523Z,32.9
2023-02-13T09:37:43.378Z,31.4
2023-02-13T09:42:50.152Z,33.3
2023-02-13T09:48:28.186Z,30.9
2023-02-13T09:54:07.909Z,33.1
2023-02-13T09:59:30.649Z,31.9
2023-02-13T10:05:08.637Z,32.4
2023-02-13T10:10:46.808Z,32.5
2023-02-13T10:16:13.316Z,31.3
2023-02-13T10:21:35.281Z,33.4
2023-02-13T10:27:12.368Z,31.1
2023-02-13T10:32:20.263Z,33.3
2023-02-13T10:37:59.109Z,32.1
2023-02-13T10:43:36.313Z,32.4
2023-02-13T10:49:16.329Z,32.8
2023-02-13T10:54:53.308Z,31.4
2023-02-13T11:00:45.719Z,33.2
2023-02-13T11:06:23.309Z,30.3
2023-02-13T11:11:44.246Z,33.8
2023-02-13T11:17:22.908Z,31.8
2023-02-13T11:23:02.010Z,33.4
2023-02-13T11:28:22.292Z,32.1
2023-02-13T11:33:45.282Z,32.4
2023-02-13T11:39:22.723Z,32.9
2023-02-13T11:45:00.119Z,31.4
2023-02-13T11:50:37.789Z,33.4
2023-02-13T11:56:14.996Z,30.7
2023-02-13T12:01:50.153Z,33.8
2023-02-13T12:06:57.551Z,32
2023-02-13T12:12:19.685Z,32.6
2023-02-13T12:17:48.973Z,32.9
2023-02-13T12:23:11.374Z,31.3
2023-02-13T12:28:49.734Z,33.4
2023-02-13T12:34:26.831Z,31.1
2023-02-13T12:39:49.432Z,33.8
2023-02-13T12:45:28.641Z,31.9
2023-02-13T12:51:05.271Z,33.1
2023-02-13T12:56:26.101Z,32.1
2023-02-13T13:01:48.387Z,31.9
2023-02-13T13:07:36.236Z,33.3
2023-02-13T13:13:13.725Z,30.1
2023-02-13T13:18:50.850Z,33.9
2023-02-13T13:24:12.421Z,31.3
2023-02-13T13:29:49.126Z,32.9
2023-02-13T13:34:57.754Z,32.4
2023-02-13T13:40:35.040Z,29.6
2023-02-13T13:45:56.232Z,34
2023-02-13T13:51:02.621Z,31.7
2023-02-13T13:56:09.460Z,32.3
2023-02-13T14:01:48.490Z,33.3
2023-02-13T14:07:12.602Z,30.4
2023-02-13T14:12:52.351Z,33.9
2023-02-13T14:18:30.297Z,31.1
2023-02-13T14:23:52.090Z,32.1
2023-02-13T14:29:36.476Z,33
2023-02-13T14:34:58.958Z,29.9
2023-02-13T14:40:39.373Z,33.4
2023-02-13T14:46:01.801Z,31.8
2023-02-13T14:51:38.577Z,31.9
2023-02-13T14:57:16.237Z,32.9
2023-02-13T15:02:54.221Z,30.1
2023-02-13T15:08:31.746Z,33.8
2023-02-13T15:13:54.038Z,31.7
2023-02-13T15:19:32.617Z,32.4
2023-02-13T15:24:55.203Z,32.6
2023-02-13T15:30:38.818Z,29.5
2023-02-13T15:36:17.369Z,33.6
2023-02-13T15:41:57.140Z,31.6
2023-02-13T15:47:19.884Z,30.3
2023-02-13T15:52:57.993Z,29.1
2023-02-13T15:58:36.555Z,28.1
2023-02-13T16:04:15.488Z,27.1
2023-02-13T16:10:05.381Z,26.1
2023-02-13T16:15:42.828Z,25.3
2023-02-13T16:21:20.283Z,24.6
2023-02-13T16:26:44.018Z,23.9
2023-02-13T16:32:22.893Z,23.4
2023-02-13T16:37:59.784Z,23.1
2023-02-13T16:43:20.992Z,22.7
2023-02-13T16:48:44.462Z,31.6
2023-02-13T16:54:23.886Z,35.8
2023-02-13T17:00:00.187Z,37.4
2023-02-13T17:05:36.773Z,38.3
2023-02-13T17:10:58.977Z,39.1
2023-02-13T17:16:35.684Z,39.4
2023-02-13T17:22:15.002Z,38.8
2023-02-13T17:27:39.271Z,40
2023-02-13T17:33:17.183Z,40.3
2023-02-13T17:38:54.936Z,40.3
2023-02-13T17:44:31.496Z,39.9
2023-02-13T17:50:21.308Z,39.9
2023-02-13T17:55:58.686Z,40
2023-02-13T18:01:37.816Z,39.8
2023-02-13T18:07:15.386Z,39.6
2023-02-13T18:12:21.388Z,38.4
2023-02-13T18:18:01.642Z,38.9
2023-02-13T18:23:38.286Z,37.5
2023-02-13T18:29:00.246Z,38.3
2023-02-13T18:34:41.174Z,37.4
2023-02-13T18:40:02.976Z,38
2023-02-13T18:45:35.333Z,37.7
2023-02-13T18:51:14.203Z,37.3
2023-02-13T18:56:35.853Z,36.4
2023-02-13T19:02:12.949Z,36
2023-02-13T19:07:50.768Z,35.6
2023-02-13T19:13:27.696Z,34.9
2023-02-13T19:19:05.115Z,34.9
2023-02-13T19:24:12.396Z,34.9
2023-02-13T19:29:34.396Z,34.4
2023-02-13T19:34:56.539Z,35.8
2023-02-13T19:40:46.289Z,37.6
2023-02-13T19:46:23.816Z,36.9
2023-02-13T19:51:33.890Z,38.2
2023-02-13T19:56:56.300Z,38.1
2023-02-13T20:02:35.371Z,37.3
2023-02-13T20:08:13.560Z,38.4
2023-02-13T20:13:20.632Z,37.3
2023-02-13T20:18:42.870Z,37.5
2023-02-13T20:24:05.880Z,36.8
2023-02-13T20:29:43.682Z,37.8
2023-02-13T20:35:16.059Z,36.4
2023-02-13T20:40:22.285Z,35.3
2023-02-13T20:45:31.293Z,34.5
2023-02-13T20:51:10.166Z,34.1
2023-02-13T20:56:17.106Z,33.6
2023-02-13T21:01:10.373Z,32.9
2023-02-13T21:06:32.516Z,32
2023-02-13T21:11:58.060Z,31.1
2023-02-13T21:17:35.646Z,30.3
2023-02-13T21:22:41.950Z,29.7
2023-02-13T21:28:19.779Z,29.3
2023-02-13T21:33:42.739Z,27.5
2023-02-13T21:39:20.353Z,26.7
2023-02-13T21:44:58.316Z,26.2
2023-02-13T21:50:36.365Z,27.5
2023-02-13T21:56:15.703Z,32.8
2023-02-13T22:01:44.597Z,30.3
2023-02-13T22:07:22.726Z,27.9
2023-02-13T22:12:58.888Z,26.6
2023-02-13T22:18:37.032Z,31.1
2023-02-13T22:24:14.421Z,32.3
2023-02-13T22:29:52.078Z,29.9
2023-02-13T22:35:43.907Z,27.1
2023-02-13T22:41:19.981Z,28.3
2023-02-13T22:46:56.927Z,32.8
2023-02-13T22:52:34.090Z,31
2023-02-13T22:57:56.344Z,28.8
2023-02-13T23:03:03.521Z,32.5
2023-02-13T23:08:41.375Z,31.9
2023-02-13T23:14:21.413Z,29.9
2023-02-13T23:19:27.022Z,31.8
2023-02-13T23:25:04.453Z,32.6
2023-02-13T23:30:26.943Z,30.3
2023-02-13T23:35:18.507Z,30.2
2023-02-13T23:40:41.111Z,32.9
2023-02-13T23:46:04.000Z,31.1
2023-02-13T23:51:26.011Z,28.9
2023-02-13T23:57:03.594Z,32.1
